sensor_id;sensor_type;location;lat;lon;timestamp;pressure;altitude;pressure_sealevel;temperature;humidity
25658;BME280;13517;59.320;18.042;2023-01-25T00:02:01;101936.56;;;3.76;100.00
25658;BME280;13517;59.320;18.042;2023-01-25T00:04:26;101933.06;;;3.71;100.00
25658;BME280;13517;59.320;18.042;2023-01-25T00:06:52;101932.03;;;3.79;100.00
25658;BME280;13517;59.320;18.042;2023-01-25T00:09:18;101917.84;;;3.74;100.00
25658;BME280;13517;59.320;18.042;2023-01-25T00:11:44;101929.31;;;3.81;100.00
25658;BME280;13517;59.320;18.042;2023-01-25T00:14:11;101916.84;;;3.80;100.00
25658;BME280;13517;59.320;18.042;2023-01-25T00:16:37;101931.06;;;3.82;100.00
25658;BME280;13517;59.320;18.042;2023-01-25T00:19:03;101919.63;;;3.75;100.00
25658;BME280;13517;59.320;18.042;2023-01-25T00:21:28;101867.38;;;3.57;100.00
25658;BME280;13517;59.320;18.042;2023-01-25T00:23:54;101893.91;;;3.66;100.00
25658;BME280;13517;59.320;18.042;2023-01-25T00:26:20;101883.25;;;3.65;100.00
25658;BME280;13517;59.320;18.042;2023-01-25T00:28:49;101923.00;;;3.87;100.00
25658;BME280;13517;59.320;18.042;2023-01-25T00:31:21;101917.69;;;3.85;100.00
25658;BME280;13517;59.320;18.042;2023-01-25T00:33:54;101885.78;;;3.74;100.00
25658;BME280;13517;59.320;18.042;2023-01-25T00:38:46;101873.34;;;3.73;100.00
25658;BME280;13517;59.320;18.042;2023-01-25T00:41:11;101843.22;;;3.62;100.00
25658;BME280;13517;59.320;18.042;2023-01-25T00:43:37;101870.50;;;3.81;100.00
25658;BME280;13517;59.320;18.042;2023-01-25T00:46:02;101887.25;;;3.92;100.00
25658;BME280;13517;59.320;18.042;2023-01-25T00:48:28;101875.63;;;3.93;100.00
25658;BME280;13517;59.320;18.042;2023-01-25T00:50:53;101872.03;;;3.94;100.00
25658;BME280;13517;59.320;18.042;2023-01-25T00:53:18;101850.81;;;3.87;100.00
25658;BME280;13517;59.320;18.042;2023-01-25T00:55:51;101872.03;;;3.96;100.00
25658;BME280;13517;59.320;18.042;2023-01-25T00:58:17;101864.00;;;3.98;100.00
25658;BME280;13517;59.320;18.042;2023-01-25T01:00:42;101783.72;;;3.52;100.00
25658;BME280;13517;59.320;18.042;2023-01-25T01:03:08;101856.72;;;4.03;100.00
25658;BME280;13517;59.320;18.042;2023-01-25T01:05:33;101832.06;;;3.88;100.00
25658;BME280;13517;59.320;18.042;2023-01-25T01:08:00;101820.59;;;3.83;100.00
25658;BME280;13517;59.320;18.042;2023-01-25T01:10:25;101856.69;;;4.06;100.00
25658;BME280;13517;59.320;18.042;2023-01-25T01:12:51;101854.88;;;4.08;100.00
25658;BME280;13517;59.320;18.042;2023-01-25T01:15:16;101798.31;;;3.81;100.00
25658;BME280;13517;59.320;18.042;2023-01-25T01:17:42;101838.78;;;4.11;100.00
25658;BME280;13517;59.320;18.042;2023-01-25T01:20:08;101815.91;;;3.93;100.00
25658;BME280;13517;59.320;18.042;2023-01-25T01:22:33;101778.84;;;3.76;100.00
25658;BME280;13517;59.320;18.042;2023-01-25T01:24:58;101838.69;;;4.14;100.00
25658;BME280;13517;59.320;18.042;2023-01-25T01:27:24;101818.25;;;4.10;100.00
25658;BME280;13517;59.320;18.042;2023-01-25T01:29:49;101798.91;;;3.99;100.00
25658;BME280;13517;59.320;18.042;2023-01-25T01:32:15;101812.88;;;4.13;100.00
25658;BME280;13517;59.320;18.042;2023-01-25T01:34:40;101738.00;;;3.67;100.00
25658;BME280;13517;59.320;18.042;2023-01-25T01:37:05;101797.75;;;4.12;100.00
25658;BME280;13517;59.320;18.042;2023-01-25T01:39:31;101783.63;;;4.04;100.00
25658;BME280;13517;59.320;18.042;2023-01-25T01:41:56;101783.56;;;4.07;100.00
25658;BME280;13517;59.320;18.042;2023-01-25T01:47:24;101794.16;;;4.13;100.00
25658;BME280;13517;59.320;18.042;2023-01-25T01:49:54;101794.88;;;4.21;100.00
25658;BME280;13517;59.320;18.042;2023-01-25T01:52:29;101787.91;;;4.13;100.00
25658;BME280;13517;59.320;18.042;2023-01-25T01:55:00;101785.22;;;4.14;100.00
25658;BME280;13517;59.320;18.042;2023-01-25T02:00:11;101790.41;;;4.22;100.00
25658;BME280;13517;59.320;18.042;2023-01-25T02:02:39;101773.56;;;4.17;100.00
25658;BME280;13517;59.320;18.042;2023-01-25T02:05:08;101752.44;;;4.03;100.00
25658;BME280;13517;59.320;18.042;2023-01-25T02:07:37;101792.09;;;4.26;100.00
25658;BME280;13517;59.320;18.042;2023-01-25T02:10:05;101760.34;;;4.09;100.00
25658;BME280;13517;59.320;18.042;2023-01-25T02:12:31;101789.38;;;4.28;100.00
25658;BME280;13517;59.320;18.042;2023-01-25T02:14:57;101769.88;;;4.22;100.00
25658;BME280;13517;59.320;18.042;2023-01-25T02:17:31;101765.47;;;4.20;100.00
25658;BME280;13517;59.320;18.042;2023-01-25T02:20:13;101775.19;;;4.26;100.00
25658;BME280;13517;59.320;18.042;2023-01-25T02:22:52;101736.34;;;4.06;100.00
25658;BME280;13517;59.320;18.042;2023-01-25T02:25:20;101747.78;;;4.13;100.00
25658;BME280;13517;59.320;18.042;2023-01-25T02:27:52;101768.97;;;4.23;100.00
25658;BME280;13517;59.320;18.042;2023-01-25T02:30:19;101776.06;;;4.25;100.00
25658;BME280;13517;59.320;18.042;2023-01-25T02:32:45;101748.56;;;4.19;100.00
25658;BME280;13517;59.320;18.042;2023-01-25T02:35:21;101759.25;;;4.19;100.00
25658;BME280;13517;59.320;18.042;2023-01-25T02:37:48;101780.38;;;4.32;100.00
25658;BME280;13517;59.320;18.042;2023-01-25T02:40:16;101766.16;;;4.30;100.00
25658;BME280;13517;59.320;18.042;2023-01-25T02:42:42;101727.31;;;4.12;100.00
25658;BME280;13517;59.320;18.042;2023-01-25T02:45:12;101763.47;;;4.31;100.00
25658;BME280;13517;59.320;18.042;2023-01-25T02:47:37;101744.97;;;4.20;100.00
25658;BME280;13517;59.320;18.042;2023-01-25T02:50:03;101742.16;;;4.27;100.00
25658;BME280;13517;59.320;18.042;2023-01-25T02:52:29;101747.50;;;4.27;100.00
25658;BME280;13517;59.320;18.042;2023-01-25T02:54:54;101734.31;;;4.17;100.00
25658;BME280;13517;59.320;18.042;2023-01-25T02:57:19;101735.19;;;4.19;100.00
25658;BME280;13517;59.320;18.042;2023-01-25T02:59:45;101738.63;;;4.25;100.00
25658;BME280;13517;59.320;18.042;2023-01-25T03:02:10;101727.09;;;4.21;100.00
25658;BME280;13517;59.320;18.042;2023-01-25T03:04:36;101686.47;;;4.05;100.00
25658;BME280;13517;59.320;18.042;2023-01-25T03:07:01;101718.13;;;4.23;100.00
25658;BME280;13517;59.320;18.042;2023-01-25T03:09:26;101711.13;;;4.19;100.00
25658;BME280;13517;59.320;18.042;2023-01-25T03:11:52;101719.03;;;4.24;100.00
25658;BME280;13517;59.320;18.042;2023-01-25T03:14:17;101732.16;;;4.35;100.00
25658;BME280;13517;59.320;18.042;2023-01-25T03:16:43;101684.56;;;4.10;100.00
25658;BME280;13517;59.320;18.042;2023-01-25T03:19:08;101709.28;;;4.21;100.00
25658;BME280;13517;59.320;18.042;2023-01-25T03:21:35;101703.84;;;4.25;100.00
25658;BME280;13517;59.320;18.042;2023-01-25T03:24:00;101700.91;;;4.35;100.00
25658;BME280;13517;59.320;18.042;2023-01-25T03:26:27;101684.41;;;4.16;100.00
25658;BME280;13517;59.320;18.042;2023-01-25T03:28:53;101713.50;;;4.32;100.00
25658;BME280;13517;59.320;18.042;2023-01-25T03:31:18;101701.22;;;4.23;100.00
25658;BME280;13517;59.320;18.042;2023-01-25T03:33:44;101690.41;;;4.28;100.00
25658;BME280;13517;59.320;18.042;2023-01-25T03:36:09;101677.19;;;4.21;100.00
25658;BME280;13517;59.320;18.042;2023-01-25T03:38:35;101649.72;;;4.15;100.00
25658;BME280;13517;59.320;18.042;2023-01-25T03:41:02;101701.81;;;4.36;100.00
25658;BME280;13517;59.320;18.042;2023-01-25T03:43:28;101688.31;;;4.41;100.00
25658;BME280;13517;59.320;18.042;2023-01-25T03:45:55;101680.28;;;4.42;100.00
25658;BME280;13517;59.320;18.042;2023-01-25T03:48:21;101653.81;;;4.30;100.00
25658;BME280;13517;59.320;18.042;2023-01-25T03:50:52;101659.84;;;4.38;100.00
25658;BME280;13517;59.320;18.042;2023-01-25T03:53:21;101647.50;;;4.32;100.00
25658;BME280;13517;59.320;18.042;2023-01-25T03:56:00;101666.00;;;4.42;100.00
25658;BME280;13517;59.320;18.042;2023-01-25T03:58:27;101650.06;;;4.37;100.00
25658;BME280;13517;59.320;18.042;2023-01-25T04:00:54;101657.03;;;4.44;100.00
25658;BME280;13517;59.320;18.042;2023-01-25T04:03:21;101608.47;;;4.23;100.00
25658;BME280;13517;59.320;18.042;2023-01-25T04:05:47;101647.22;;;4.45;100.00
25658;BME280;13517;59.320;18.042;2023-01-25T04:08:13;101648.06;;;4.47;100.00
25658;BME280;13517;59.320;18.042;2023-01-25T04:10:38;101614.59;;;4.29;100.00
25658;BME280;13517;59.320;18.042;2023-01-25T04:13:05;101638.19;;;4.49;100.00
25658;BME280;13517;59.320;18.042;2023-01-25T04:15:31;101611.63;;;4.41;100.00
25658;BME280;13517;59.320;18.042;2023-01-25T04:17:56;101611.56;;;4.43;100.00
25658;BME280;13517;59.320;18.042;2023-01-25T04:20:22;101619.41;;;4.50;100.00
25658;BME280;13517;59.320;18.042;2023-01-25T04:22:47;101626.53;;;4.52;100.00
25658;BME280;13517;59.320;18.042;2023-01-25T04:25:13;101586.94;;;4.30;100.00
25658;BME280;13517;59.320;18.042;2023-01-25T04:27:38;101617.72;;;4.46;100.00
25658;BME280;13517;59.320;18.042;2023-01-25T04:30:04;101606.16;;;4.46;100.00
25658;BME280;13517;59.320;18.042;2023-01-25T04:32:30;101622.06;;;4.52;100.00
25658;BME280;13517;59.320;18.042;2023-01-25T04:34:55;101617.56;;;4.53;100.00
25658;BME280;13517;59.320;18.042;2023-01-25T04:37:20;101576.97;;;4.36;100.00
25658;BME280;13517;59.320;18.042;2023-01-25T04:39:46;101590.34;;;4.36;100.00
25658;BME280;13517;59.320;18.042;2023-01-25T04:42:11;101597.19;;;4.48;100.00
25658;BME280;13517;59.320;18.042;2023-01-25T04:44:37;101555.66;;;4.32;100.00
25658;BME280;13517;59.320;18.042;2023-01-25T04:47:03;101582.88;;;4.49;100.00
25658;BME280;13517;59.320;18.042;2023-01-25T04:49:29;101595.31;;;4.52;100.00
25658;BME280;13517;59.320;18.042;2023-01-25T04:51:55;101591.69;;;4.55;100.00
25658;BME280;13517;59.320;18.042;2023-01-25T04:54:20;101561.78;;;4.37;100.00
25658;BME280;13517;59.320;18.042;2023-01-25T04:56:45;101587.41;;;4.47;100.00
25658;BME280;13517;59.320;18.042;2023-01-25T04:59:11;101559.03;;;4.40;100.00
25658;BME280;13517;59.320;18.042;2023-01-25T05:01:36;101580.19;;;4.49;100.00
25658;BME280;13517;59.320;18.042;2023-01-25T05:04:02;101569.81;;;4.37;100.00
25658;BME280;13517;59.320;18.042;2023-01-25T05:06:27;101596.09;;;4.56;100.00
25658;BME280;13517;59.320;18.042;2023-01-25T05:08:52;101583.66;;;4.55;100.00
25658;BME280;13517;59.320;18.042;2023-01-25T05:11:18;101592.53;;;4.55;100.00
25658;BME280;13517;59.320;18.042;2023-01-25T05:13:43;101584.59;;;4.52;100.00
25658;BME280;13517;59.320;18.042;2023-01-25T05:16:09;101532.72;;;4.23;100.00
25658;BME280;13517;59.320;18.042;2023-01-25T05:18:34;101557.16;;;4.44;100.00
25658;BME280;13517;59.320;18.042;2023-01-25T05:21:00;101572.84;;;4.58;100.00
25658;BME280;13517;59.320;18.042;2023-01-25T05:23:27;101578.19;;;4.58;100.00
25658;BME280;13517;59.320;18.042;2023-01-25T05:25:53;101563.31;;;4.47;100.00
25658;BME280;13517;59.320;18.042;2023-01-25T05:28:37;101558.06;;;4.43;100.00
25658;BME280;13517;59.320;18.042;2023-01-25T05:31:03;101572.94;;;4.55;100.00
25658;BME280;13517;59.320;18.042;2023-01-25T05:33:29;101569.66;;;4.43;100.00
25658;BME280;13517;59.320;18.042;2023-01-25T05:35:55;101539.44;;;4.40;100.00
25658;BME280;13517;59.320;18.042;2023-01-25T05:38:20;101540.47;;;4.34;100.00
25658;BME280;13517;59.320;18.042;2023-01-25T05:40:48;101543.84;;;4.41;100.00
25658;BME280;13517;59.320;18.042;2023-01-25T05:43:14;101512.31;;;4.19;100.00
25658;BME280;13517;59.320;18.042;2023-01-25T05:45:39;101543.63;;;4.50;100.00
25658;BME280;13517;59.320;18.042;2023-01-25T05:48:05;101555.03;;;4.57;100.00
25658;BME280;13517;59.320;18.042;2023-01-25T05:50:31;101564.69;;;4.62;100.00
25658;BME280;13517;59.320;18.042;2023-01-25T05:52:56;101555.13;;;4.54;100.00
25658;BME280;13517;59.320;18.042;2023-01-25T05:55:21;101566.44;;;4.63;100.00
25658;BME280;13517;59.320;18.042;2023-01-25T05:57:47;101555.84;;;4.60;100.00
25658;BME280;13517;59.320;18.042;2023-01-25T06:00:13;101533.88;;;4.47;100.00
25658;BME280;13517;59.320;18.042;2023-01-25T06:02:39;101540.75;;;4.56;100.00
25658;BME280;13517;59.320;18.042;2023-01-25T06:05:05;101565.59;;;4.63;100.00
25658;BME280;13517;59.320;18.042;2023-01-25T06:07:34;101551.28;;;4.64;100.00
25658;BME280;13517;59.320;18.042;2023-01-25T06:10:03;101544.06;;;4.68;100.00
25658;BME280;13517;59.320;18.042;2023-01-25T06:12:29;101544.09;;;4.66;100.00
25658;BME280;13517;59.320;18.042;2023-01-25T06:14:55;101538.84;;;4.61;100.00
25658;BME280;13517;59.320;18.042;2023-01-25T06:17:21;101524.78;;;4.55;100.00
25658;BME280;13517;59.320;18.042;2023-01-25T06:19:46;101524.69;;;4.58;100.00
25658;BME280;13517;59.320;18.042;2023-01-25T06:22:12;101475.50;;;4.29;100.00
25658;BME280;13517;59.320;18.042;2023-01-25T06:24:37;101521.94;;;4.61;100.00
25658;BME280;13517;59.320;18.042;2023-01-25T06:27:02;101441.97;;;4.15;100.00
25658;BME280;13517;59.320;18.042;2023-01-25T06:29:28;101511.47;;;4.52;100.00
25658;BME280;13517;59.320;18.042;2023-01-25T06:31:53;101535.13;;;4.67;100.00
25658;BME280;13517;59.320;18.042;2023-01-25T06:34:20;101498.97;;;4.52;100.00
25658;BME280;13517;59.320;18.042;2023-01-25T06:36:47;101505.97;;;4.56;100.00
25658;BME280;13517;59.320;18.042;2023-01-25T06:39:12;101455.84;;;4.30;100.00
25658;BME280;13517;59.320;18.042;2023-01-25T06:41:38;101502.34;;;4.59;100.00
25658;BME280;13517;59.320;18.042;2023-01-25T06:44:03;101497.91;;;4.58;100.00
25658;BME280;13517;59.320;18.042;2023-01-25T06:46:31;101487.66;;;4.41;100.00
25658;BME280;13517;59.320;18.042;2023-01-25T06:48:56;101513.78;;;4.66;100.00
25658;BME280;13517;59.320;18.042;2023-01-25T06:51:22;101505.91;;;4.59;100.00
25658;BME280;13517;59.320;18.042;2023-01-25T06:53:47;101488.34;;;4.49;100.00
25658;BME280;13517;59.320;18.042;2023-01-25T06:56:18;101489.88;;;4.58;100.00
25658;BME280;13517;59.320;18.042;2023-01-25T06:58:45;101487.22;;;4.58;100.00
25658;BME280;13517;59.320;18.042;2023-01-25T07:01:17;101489.09;;;4.54;100.00
25658;BME280;13517;59.320;18.042;2023-01-25T07:03:50;101480.91;;;4.60;100.00
25658;BME280;13517;59.320;18.042;2023-01-25T07:06:16;101502.94;;;4.70;100.00
25658;BME280;13517;59.320;18.042;2023-01-25T07:08:41;101488.84;;;4.63;100.00
25658;BME280;13517;59.320;18.042;2023-01-25T07:11:10;101494.00;;;4.71;100.00
25658;BME280;13517;59.320;18.042;2023-01-25T07:13:39;101484.06;;;4.75;100.00
25658;BME280;13517;59.320;18.042;2023-01-25T07:16:07;101471.63;;;4.74;100.00
25658;BME280;13517;59.320;18.042;2023-01-25T07:18:33;101490.19;;;4.80;100.00
25658;BME280;13517;59.320;18.042;2023-01-25T07:21:03;101483.00;;;4.81;100.00
25658;BME280;13517;59.320;18.042;2023-01-25T07:23:33;101437.28;;;4.57;100.00
25658;BME280;13517;59.320;18.042;2023-01-25T07:26:00;101465.34;;;4.75;100.00
25658;BME280;13517;59.320;18.042;2023-01-25T07:28:26;101463.34;;;4.82;100.00
25658;BME280;13517;59.320;18.042;2023-01-25T07:30:52;101445.19;;;4.61;100.00
25658;BME280;13517;59.320;18.042;2023-01-25T07:33:17;101467.88;;;4.80;100.00
25658;BME280;13517;59.320;18.042;2023-01-25T07:35:43;101450.16;;;4.75;100.00
25658;BME280;13517;59.320;18.042;2023-01-25T07:38:13;101482.66;;;4.93;100.00
25658;BME280;13517;59.320;18.042;2023-01-25T07:40:38;101445.34;;;4.87;100.00
25658;BME280;13517;59.320;18.042;2023-01-25T07:43:04;101419.03;;;4.71;100.00
25658;BME280;13517;59.320;18.042;2023-01-25T07:45:30;101455.81;;;4.96;100.00
25658;BME280;13517;59.320;18.042;2023-01-25T07:47:59;101451.28;;;4.98;100.00
25658;BME280;13517;59.320;18.042;2023-01-25T07:50:25;101446.78;;;4.99;100.00
25658;BME280;13517;59.320;18.042;2023-01-25T07:52:51;101475.88;;;5.11;100.00
25658;BME280;13517;59.320;18.042;2023-01-25T07:55:17;101404.56;;;4.79;100.00
25658;BME280;13517;59.320;18.042;2023-01-25T07:57:42;101466.06;;;5.12;100.00
25658;BME280;13517;59.320;18.042;2023-01-25T08:00:08;101404.84;;;4.69;100.00
25658;BME280;13517;59.320;18.042;2023-01-25T08:02:34;101464.06;;;5.18;100.00
25658;BME280;13517;59.320;18.042;2023-01-25T08:05:00;101446.38;;;5.13;100.00
25658;BME280;13517;59.320;18.042;2023-01-25T08:07:27;101451.56;;;5.19;100.00
25658;BME280;13517;59.320;18.042;2023-01-25T08:09:53;101436.59;;;5.12;100.00
25658;BME280;13517;59.320;18.042;2023-01-25T08:12:18;101451.47;;;5.22;100.00
25658;BME280;13517;59.320;18.042;2023-01-25T08:14:44;101426.59;;;5.17;100.00
25658;BME280;13517;59.320;18.042;2023-01-25T08:17:09;101437.06;;;5.26;100.00
25658;BME280;13517;59.320;18.042;2023-01-25T08:19:35;101422.97;;;5.20;100.00
25658;BME280;13517;59.320;18.042;2023-01-25T08:22:00;101382.66;;;4.94;100.00
25658;BME280;13517;59.320;18.042;2023-01-25T08:24:25;101415.69;;;5.23;100.00
25658;BME280;13517;59.320;18.042;2023-01-25T08:26:51;101419.13;;;5.28;100.00
25658;BME280;13517;59.320;18.042;2023-01-25T08:29:16;101414.59;;;5.30;100.00
25658;BME280;13517;59.320;18.042;2023-01-25T08:31:42;101392.53;;;5.22;100.00
25658;BME280;13517;59.320;18.042;2023-01-25T08:34:10;101398.66;;;5.26;100.00
25658;BME280;13517;59.320;18.042;2023-01-25T08:36:36;101428.56;;;5.40;100.00
25658;BME280;13517;59.320;18.042;2023-01-25T08:39:06;101410.16;;;5.29;100.00
25658;BME280;13517;59.320;18.042;2023-01-25T08:41:34;101418.81;;;5.38;100.00
25658;BME280;13517;59.320;18.042;2023-01-25T08:43:59;101405.41;;;5.38;100.00
25658;BME280;13517;59.320;18.042;2023-01-25T08:46:27;101408.84;;;5.43;100.00
25658;BME280;13517;59.320;18.042;2023-01-25T08:48:54;101392.97;;;5.37;100.00
25658;BME280;13517;59.320;18.042;2023-01-25T08:51:20;101396.25;;;5.45;100.00
25658;BME280;13517;59.320;18.042;2023-01-25T08:53:46;101390.09;;;5.43;100.00
25658;BME280;13517;59.320;18.042;2023-01-25T08:56:13;101391.94;;;5.41;100.00
25658;BME280;13517;59.320;18.042;2023-01-25T08:58:42;101416.69;;;5.49;100.00
25658;BME280;13517;59.320;18.042;2023-01-25T09:01:10;101412.25;;;5.48;100.00
25658;BME280;13517;59.320;18.042;2023-01-25T09:03:37;101408.81;;;5.44;100.00
25658;BME280;13517;59.320;18.042;2023-01-25T09:06:03;101398.81;;;5.50;100.00
25658;BME280;13517;59.320;18.042;2023-01-25T09:08:28;101398.09;;;5.44;100.00
25658;BME280;13517;59.320;18.042;2023-01-25T09:10:54;101379.72;;;5.32;100.00
25658;BME280;13517;59.320;18.042;2023-01-25T09:13:19;101363.88;;;5.24;100.00
25658;BME280;13517;59.320;18.042;2023-01-25T09:15:44;101408.69;;;5.48;100.00
25658;BME280;13517;59.320;18.042;2023-01-25T09:18:10;101393.72;;;5.40;100.00
25658;BME280;13517;59.320;18.042;2023-01-25T09:20:38;101409.56;;;5.48;100.00
25658;BME280;13517;59.320;18.042;2023-01-25T09:23:04;101382.97;;;5.42;100.00
25658;BME280;13517;59.320;18.042;2023-01-25T09:25:29;101412.84;;;5.58;100.00
25658;BME280;13517;59.320;18.042;2023-01-25T09:27:55;101400.41;;;5.55;100.00
25658;BME280;13517;59.320;18.042;2023-01-25T09:30:20;101385.66;;;5.42;100.00
25658;BME280;13517;59.320;18.042;2023-01-25T09:32:48;101395.72;;;5.62;100.00
25658;BME280;13517;59.320;18.042;2023-01-25T09:35:14;101398.22;;;5.67;100.00
25658;BME280;13517;59.320;18.042;2023-01-25T09:37:40;101386.53;;;5.69;100.00
25658;BME280;13517;59.320;18.042;2023-01-25T09:40:08;101356.63;;;5.55;100.00
25658;BME280;13517;59.320;18.042;2023-01-25T09:45:33;101384.75;;;5.70;100.00
25658;BME280;13517;59.320;18.042;2023-01-25T09:48:03;101382.78;;;5.75;100.00
25658;BME280;13517;59.320;18.042;2023-01-25T09:51:04;101372.28;;;5.69;100.00
25658;BME280;13517;59.320;18.042;2023-01-25T09:53:38;101372.16;;;5.72;100.00
25658;BME280;13517;59.320;18.042;2023-01-25T09:56:11;101373.00;;;5.74;100.00
25658;BME280;13517;59.320;18.042;2023-01-25T09:58:50;101325.44;;;5.52;100.00
25658;BME280;13517;59.320;18.042;2023-01-25T10:01:20;101357.97;;;5.68;100.00
25658;BME280;13517;59.320;18.042;2023-01-25T10:04:00;101355.41;;;5.65;100.00
25658;BME280;13517;59.320;18.042;2023-01-25T10:06:37;101342.09;;;5.62;100.00
25658;BME280;13517;59.320;18.042;2023-01-25T10:09:40;101358.88;;;5.69;100.00
25658;BME280;13517;59.320;18.042;2023-01-25T10:12:19;101345.72;;;5.61;100.00
25658;BME280;13517;59.320;18.042;2023-01-25T10:14:43;101343.59;;;5.71;100.00
25658;BME280;13517;59.320;18.042;2023-01-25T10:20:14;101329.81;;;5.82;100.00
25658;BME280;13517;59.320;18.042;2023-01-25T10:25:37;101317.22;;;5.84;100.00
25658;BME280;13517;59.320;18.042;2023-01-25T10:28:23;101320.44;;;5.94;100.00
25658;BME280;13517;59.320;18.042;2023-01-25T10:33:42;101310.31;;;6.04;100.00
25658;BME280;13517;59.320;18.042;2023-01-25T10:36:13;101310.31;;;6.04;100.00
25658;BME280;13517;59.320;18.042;2023-01-25T10:38:41;101297.84;;;6.01;100.00
25658;BME280;13517;59.320;18.042;2023-01-25T10:41:24;101305.88;;;6.03;100.00
25658;BME280;13517;59.320;18.042;2023-01-25T10:43:51;101301.09;;;6.11;100.00
25658;BME280;13517;59.320;18.042;2023-01-25T10:46:39;101299.47;;;6.07;100.00
25658;BME280;13517;59.320;18.042;2023-01-25T10:49:19;101298.72;;;6.03;100.00
25658;BME280;13517;59.320;18.042;2023-01-25T10:51:47;101284.38;;;6.04;100.00
25658;BME280;13517;59.320;18.042;2023-01-25T10:54:14;101222.88;;;5.74;100.00
25658;BME280;13517;59.320;18.042;2023-01-25T10:56:41;101284.25;;;6.07;100.00
25658;BME280;13517;59.320;18.042;2023-01-25T10:59:16;101262.97;;;6.01;100.00
25658;BME280;13517;59.320;18.042;2023-01-25T11:01:43;101280.53;;;6.11;100.00
25658;BME280;13517;59.320;18.042;2023-01-25T11:04:33;101270.03;;;6.05;100.00
25658;BME280;13517;59.320;18.042;2023-01-25T11:07:00;101264.72;;;6.04;100.00
25658;BME280;13517;59.320;18.042;2023-01-25T11:09:37;101262.78;;;6.07;100.00
25658;BME280;13517;59.320;18.042;2023-01-25T11:12:22;101247.19;;;5.93;100.00
25658;BME280;13517;59.320;18.042;2023-01-25T11:14:48;101262.97;;;6.01;100.00
25658;BME280;13517;59.320;18.042;2023-01-25T11:17:32;101237.31;;;5.94;100.00
25658;BME280;13517;59.320;18.042;2023-01-25T11:22:55;101255.00;;;5.99;100.00
25658;BME280;13517;59.320;18.042;2023-01-25T11:25:26;101266.94;;;5.91;100.00
25658;BME280;13517;59.320;18.042;2023-01-25T11:28:21;101253.59;;;5.89;100.00
25658;BME280;13517;59.320;18.042;2023-01-25T11:30:51;101243.66;;;5.91;100.00
25658;BME280;13517;59.320;18.042;2023-01-25T11:33:19;101227.97;;;5.80;100.00
25658;BME280;13517;59.320;18.042;2023-01-25T11:36:17;101238.25;;;5.93;100.00
25658;BME280;13517;59.320;18.042;2023-01-25T11:38:55;101236.56;;;5.90;100.00
25658;BME280;13517;59.320;18.042;2023-01-25T11:41:35;101212.50;;;5.63;100.00
25658;BME280;13517;59.320;18.042;2023-01-25T11:44:20;101211.88;;;5.80;100.00
25658;BME280;13517;59.320;18.042;2023-01-25T11:47:01;101207.00;;;5.68;100.00
25658;BME280;13517;59.320;18.042;2023-01-25T11:49:50;101214.97;;;5.69;100.00
25658;BME280;13517;59.320;18.042;2023-01-25T11:52:53;101226.56;;;5.70;100.00
25658;BME280;13517;59.320;18.042;2023-01-25T11:58:03;101234.13;;;5.58;100.00
25658;BME280;13517;59.320;18.042;2023-01-25T12:03:46;101234.56;;;5.46;100.00
25658;BME280;13517;59.320;18.042;2023-01-25T12:06:21;101233.63;;;5.47;100.00
25658;BME280;13517;59.320;18.042;2023-01-25T12:28:08;101218.97;;;5.05;100.00
25658;BME280;13517;59.320;18.042;2023-01-25T12:33:45;101202.78;;;4.83;100.00
25658;BME280;13517;59.320;18.042;2023-01-25T12:36:26;101202.66;;;4.86;100.00
25658;BME280;13517;59.320;18.042;2023-01-25T12:39:23;101222.53;;;4.79;100.00
25658;BME280;13517;59.320;18.042;2023-01-25T12:44:55;101213.75;;;4.73;100.00
25658;BME280;13517;59.320;18.042;2023-01-25T12:47:43;101221.94;;;4.69;100.00
25658;BME280;13517;59.320;18.042;2023-01-25T12:50:39;101225.44;;;4.71;100.00
25658;BME280;13517;59.320;18.042;2023-01-25T12:53:23;101202.59;;;4.60;100.00
25658;BME280;13517;59.320;18.042;2023-01-25T12:55:50;101177.38;;;4.39;100.00
25658;BME280;13517;59.320;18.042;2023-01-25T13:03:57;101225.69;;;4.63;100.00
25658;BME280;13517;59.320;18.042;2023-01-25T13:06:57;101202.00;;;4.50;100.00
25658;BME280;13517;59.320;18.042;2023-01-25T13:09:33;101201.69;;;4.60;100.00
25658;BME280;13517;59.320;18.042;2023-01-25T13:12:04;101211.53;;;4.59;100.00
25658;BME280;13517;59.320;18.042;2023-01-25T13:17:09;101202.81;;;4.53;100.00
25658;BME280;13517;59.320;18.042;2023-01-25T13:22:02;101200.06;;;4.56;100.00
25658;BME280;13517;59.320;18.042;2023-01-25T13:24:29;101188.44;;;4.57;100.00
25658;BME280;13517;59.320;18.042;2023-01-25T13:29:42;101185.13;;;4.48;100.00
25658;BME280;13517;59.320;18.042;2023-01-25T13:32:13;101178.03;;;4.47;100.00
25658;BME280;13517;59.320;18.042;2023-01-25T13:37:26;101188.00;;;4.42;100.00
25658;BME280;13517;59.320;18.042;2023-01-25T13:42:35;101162.25;;;4.38;100.00
25658;BME280;13517;59.320;18.042;2023-01-25T13:45:10;101149.28;;;4.26;100.00
25658;BME280;13517;59.320;18.042;2023-01-25T13:47:41;101153.53;;;4.33;100.00
25658;BME280;13517;59.320;18.042;2023-01-25T13:50:24;101161.31;;;4.39;100.00
25658;BME280;13517;59.320;18.042;2023-01-25T13:52:57;101163.09;;;4.40;100.00
25658;BME280;13517;59.320;18.042;2023-01-25T13:55:23;101155.97;;;4.39;100.00
25658;BME280;13517;59.320;18.042;2023-01-25T13:57:49;101142.81;;;4.33;100.00
25658;BME280;13517;59.320;18.042;2023-01-25T14:00:16;101167.38;;;4.46;100.00
25658;BME280;13517;59.320;18.042;2023-01-25T14:02:44;101147.88;;;4.42;100.00